sensor_id;sensor_type;location;lat;lon;timestamp;P1;durP1;ratioP1;P2;durP2;ratioP2
26484;SDS011;18083;50.560;7.262;2023-03-09T00:00:07;35.60;;;21.03;;
26484;SDS011;18083;50.560;7.262;2023-03-09T00:02:36;28.70;;;18.67;;
26484;SDS011;18083;50.560;7.262;2023-03-09T00:05:04;27.70;;;18.43;;
26484;SDS011;18083;50.560;7.262;2023-03-09T00:07:31;31.87;;;19.00;;
26484;SDS011;18083;50.560;7.262;2023-03-09T00:09:58;32.40;;;19.63;;
26484;SDS011;18083;50.560;7.262;2023-03-09T00:12:26;38.67;;;19.67;;
26484;SDS011;18083;50.560;7.262;2023-03-09T00:14:54;31.03;;;20.00;;
26484;SDS011;18083;50.560;7.262;2023-03-09T00:17:21;35.93;;;21.50;;
26484;SDS011;18083;50.560;7.262;2023-03-09T00:19:49;35.67;;;21.87;;
26484;SDS011;18083;50.560;7.262;2023-03-09T00:22:16;32.13;;;20.93;;
26484;SDS011;18083;50.560;7.262;2023-03-09T00:24:43;36.70;;;24.53;;
26484;SDS011;18083;50.560;7.262;2023-03-09T00:27:13;28.97;;;18.43;;
26484;SDS011;18083;50.560;7.262;2023-03-09T00:29:41;33.80;;;21.47;;
26484;SDS011;18083;50.560;7.262;2023-03-09T00:32:08;31.13;;;19.50;;
26484;SDS011;18083;50.560;7.262;2023-03-09T00:34:35;31.57;;;18.93;;
26484;SDS011;18083;50.560;7.262;2023-03-09T00:37:03;30.37;;;19.97;;
26484;SDS011;18083;50.560;7.262;2023-03-09T00:39:30;31.50;;;18.57;;
26484;SDS011;18083;50.560;7.262;2023-03-09T00:41:57;35.23;;;19.60;;
26484;SDS011;18083;50.560;7.262;2023-03-09T00:44:25;32.47;;;20.47;;
26484;SDS011;18083;50.560;7.262;2023-03-09T00:46:52;31.90;;;19.63;;
26484;SDS011;18083;50.560;7.262;2023-03-09T00:49:19;33.03;;;20.83;;
26484;SDS011;18083;50.560;7.262;2023-03-09T00:51:47;32.83;;;19.40;;
26484;SDS011;18083;50.560;7.262;2023-03-09T00:54:14;32.90;;;20.20;;
26484;SDS011;18083;50.560;7.262;2023-03-09T00:56:42;32.40;;;20.90;;
26484;SDS011;18083;50.560;7.262;2023-03-09T00:59:09;33.20;;;20.70;;
26484;SDS011;18083;50.560;7.262;2023-03-09T01:01:37;35.73;;;20.20;;
26484;SDS011;18083;50.560;7.262;2023-03-09T01:04:04;32.27;;;19.60;;
26484;SDS011;18083;50.560;7.262;2023-03-09T01:06:31;36.70;;;20.53;;
26484;SDS011;18083;50.560;7.262;2023-03-09T01:08:59;36.20;;;21.30;;
26484;SDS011;18083;50.560;7.262;2023-03-09T01:11:26;31.73;;;20.37;;
26484;SDS011;18083;50.560;7.262;2023-03-09T01:13:54;34.13;;;21.53;;
26484;SDS011;18083;50.560;7.262;2023-03-09T01:16:21;30.87;;;18.90;;
26484;SDS011;18083;50.560;7.262;2023-03-09T01:18:49;36.17;;;21.23;;
26484;SDS011;18083;50.560;7.262;2023-03-09T01:21:16;42.60;;;21.97;;
26484;SDS011;18083;50.560;7.262;2023-03-09T01:23:43;33.80;;;21.70;;
26484;SDS011;18083;50.560;7.262;2023-03-09T01:26:11;38.87;;;21.80;;
26484;SDS011;18083;50.560;7.262;2023-03-09T01:28:38;30.67;;;20.57;;
26484;SDS011;18083;50.560;7.262;2023-03-09T01:31:07;37.80;;;23.37;;
26484;SDS011;18083;50.560;7.262;2023-03-09T01:33:35;45.87;;;23.73;;
26484;SDS011;18083;50.560;7.262;2023-03-09T01:36:06;42.83;;;22.73;;
26484;SDS011;18083;50.560;7.262;2023-03-09T01:38:33;43.67;;;23.47;;
26484;SDS011;18083;50.560;7.262;2023-03-09T01:41:01;43.40;;;23.40;;
26484;SDS011;18083;50.560;7.262;2023-03-09T01:43:30;35.93;;;21.63;;
26484;SDS011;18083;50.560;7.262;2023-03-09T01:48:50;39.90;;;23.60;;
26484;SDS011;18083;50.560;7.262;2023-03-09T01:51:16;33.80;;;21.43;;
26484;SDS011;18083;50.560;7.262;2023-03-09T01:53:43;32.03;;;20.50;;
26484;SDS011;18083;50.560;7.262;2023-03-09T01:56:11;36.13;;;22.20;;
26484;SDS011;18083;50.560;7.262;2023-03-09T01:58:39;34.43;;;22.03;;
26484;SDS011;18083;50.560;7.262;2023-03-09T02:01:06;27.80;;;19.63;;
26484;SDS011;18083;50.560;7.262;2023-03-09T02:03:34;35.37;;;21.83;;
26484;SDS011;18083;50.560;7.262;2023-03-09T02:06:09;32.67;;;21.83;;
26484;SDS011;18083;50.560;7.262;2023-03-09T02:08:31;37.43;;;20.77;;
26484;SDS011;18083;50.560;7.262;2023-03-09T02:11:00;28.13;;;18.60;;
26484;SDS011;18083;50.560;7.262;2023-03-09T02:13:30;29.23;;;19.83;;
26484;SDS011;18083;50.560;7.262;2023-03-09T02:15:58;38.03;;;23.13;;
26484;SDS011;18083;50.560;7.262;2023-03-09T02:18:25;33.23;;;19.90;;
26484;SDS011;18083;50.560;7.262;2023-03-09T02:20:57;36.00;;;20.03;;
26484;SDS011;18083;50.560;7.262;2023-03-09T02:26:09;32.87;;;21.03;;
26484;SDS011;18083;50.560;7.262;2023-03-09T02:28:28;32.70;;;20.30;;
26484;SDS011;18083;50.560;7.262;2023-03-09T02:30:56;36.83;;;21.90;;
26484;SDS011;18083;50.560;7.262;2023-03-09T02:33:28;40.87;;;23.93;;
26484;SDS011;18083;50.560;7.262;2023-03-09T02:35:56;37.77;;;22.43;;
26484;SDS011;18083;50.560;7.262;2023-03-09T02:38:24;37.33;;;23.50;;
26484;SDS011;18083;50.560;7.262;2023-03-09T02:40:52;38.13;;;24.03;;
26484;SDS011;18083;50.560;7.262;2023-03-09T02:43:22;41.83;;;25.53;;
26484;SDS011;18083;50.560;7.262;2023-03-09T02:45:49;41.20;;;23.63;;
26484;SDS011;18083;50.560;7.262;2023-03-09T02:48:17;37.77;;;22.53;;
26484;SDS011;18083;50.560;7.262;2023-03-09T02:50:45;41.73;;;22.77;;
26484;SDS011;18083;50.560;7.262;2023-03-09T02:53:12;39.70;;;24.20;;
26484;SDS011;18083;50.560;7.262;2023-03-09T02:55:39;38.70;;;24.00;;
26484;SDS011;18083;50.560;7.262;2023-03-09T02:58:07;43.27;;;25.20;;
26484;SDS011;18083;50.560;7.262;2023-03-09T03:00:34;40.97;;;23.80;;
26484;SDS011;18083;50.560;7.262;2023-03-09T03:03:01;37.43;;;22.27;;
26484;SDS011;18083;50.560;7.262;2023-03-09T03:05:29;35.67;;;23.00;;
26484;SDS011;18083;50.560;7.262;2023-03-09T03:07:56;37.27;;;22.03;;
26484;SDS011;18083;50.560;7.262;2023-03-09T03:10:24;40.67;;;21.63;;
26484;SDS011;18083;50.560;7.262;2023-03-09T03:12:51;35.00;;;22.37;;
26484;SDS011;18083;50.560;7.262;2023-03-09T03:15:19;36.90;;;21.77;;
26484;SDS011;18083;50.560;7.262;2023-03-09T03:17:46;32.80;;;21.20;;
26484;SDS011;18083;50.560;7.262;2023-03-09T03:20:13;34.20;;;21.17;;
26484;SDS011;18083;50.560;7.262;2023-03-09T03:22:41;33.00;;;20.40;;
26484;SDS011;18083;50.560;7.262;2023-03-09T03:25:09;31.33;;;19.60;;
26484;SDS011;18083;50.560;7.262;2023-03-09T03:27:36;33.93;;;20.80;;
26484;SDS011;18083;50.560;7.262;2023-03-09T03:30:04;37.60;;;21.13;;
26484;SDS011;18083;50.560;7.262;2023-03-09T03:32:31;41.40;;;22.67;;
26484;SDS011;18083;50.560;7.262;2023-03-09T03:34:58;36.70;;;21.23;;
26484;SDS011;18083;50.560;7.262;2023-03-09T03:37:26;35.17;;;21.33;;
26484;SDS011;18083;50.560;7.262;2023-03-09T03:39:53;36.17;;;21.03;;
26484;SDS011;18083;50.560;7.262;2023-03-09T03:42:20;37.07;;;21.20;;
26484;SDS011;18083;50.560;7.262;2023-03-09T03:44:48;31.73;;;19.67;;
26484;SDS011;18083;50.560;7.262;2023-03-09T03:47:15;34.43;;;21.83;;
26484;SDS011;18083;50.560;7.262;2023-03-09T03:49:42;31.27;;;20.87;;
26484;SDS011;18083;50.560;7.262;2023-03-09T03:52:10;31.80;;;19.20;;
26484;SDS011;18083;50.560;7.262;2023-03-09T03:54:38;32.80;;;20.47;;
26484;SDS011;18083;50.560;7.262;2023-03-09T03:57:06;34.30;;;21.07;;
26484;SDS011;18083;50.560;7.262;2023-03-09T03:59:33;31.67;;;19.97;;
26484;SDS011;18083;50.560;7.262;2023-03-09T04:02:01;32.67;;;21.07;;
26484;SDS011;18083;50.560;7.262;2023-03-09T04:04:28;32.07;;;20.23;;
26484;SDS011;18083;50.560;7.262;2023-03-09T04:06:55;32.60;;;19.87;;
26484;SDS011;18083;50.560;7.262;2023-03-09T04:09:23;37.37;;;21.03;;
26484;SDS011;18083;50.560;7.262;2023-03-09T04:11:50;32.93;;;19.70;;
26484;SDS011;18083;50.560;7.262;2023-03-09T04:14:17;33.37;;;20.27;;
26484;SDS011;18083;50.560;7.262;2023-03-09T04:16:44;37.23;;;22.30;;
26484;SDS011;18083;50.560;7.262;2023-03-09T04:19:12;36.57;;;20.13;;
26484;SDS011;18083;50.560;7.262;2023-03-09T04:21:39;33.80;;;20.30;;
26484;SDS011;18083;50.560;7.262;2023-03-09T04:24:07;33.23;;;20.57;;
26484;SDS011;18083;50.560;7.262;2023-03-09T04:26:34;34.43;;;19.87;;
26484;SDS011;18083;50.560;7.262;2023-03-09T04:29:01;29.13;;;18.13;;
26484;SDS011;18083;50.560;7.262;2023-03-09T04:31:28;29.70;;;19.20;;
26484;SDS011;18083;50.560;7.262;2023-03-09T04:33:56;31.10;;;21.53;;
26484;SDS011;18083;50.560;7.262;2023-03-09T04:36:24;48.37;;;27.67;;
26484;SDS011;18083;50.560;7.262;2023-03-09T04:38:52;33.50;;;21.33;;
26484;SDS011;18083;50.560;7.262;2023-03-09T04:41:19;33.83;;;20.47;;
26484;SDS011;18083;50.560;7.262;2023-03-09T04:43:46;32.73;;;21.00;;
26484;SDS011;18083;50.560;7.262;2023-03-09T04:46:14;33.07;;;20.03;;
26484;SDS011;18083;50.560;7.262;2023-03-09T04:48:41;35.00;;;19.97;;
26484;SDS011;18083;50.560;7.262;2023-03-09T04:51:08;37.47;;;21.53;;
26484;SDS011;18083;50.560;7.262;2023-03-09T04:53:36;31.63;;;20.20;;
26484;SDS011;18083;50.560;7.262;2023-03-09T04:56:03;35.00;;;20.47;;
26484;SDS011;18083;50.560;7.262;2023-03-09T04:58:30;32.53;;;20.57;;
26484;SDS011;18083;50.560;7.262;2023-03-09T05:00:58;34.93;;;20.33;;
26484;SDS011;18083;50.560;7.262;2023-03-09T05:03:27;33.97;;;21.23;;
26484;SDS011;18083;50.560;7.262;2023-03-09T05:05:54;43.83;;;22.33;;
26484;SDS011;18083;50.560;7.262;2023-03-09T05:08:22;38.63;;;22.30;;
26484;SDS011;18083;50.560;7.262;2023-03-09T05:10:49;37.40;;;20.83;;
26484;SDS011;18083;50.560;7.262;2023-03-09T05:13:16;35.77;;;21.97;;
26484;SDS011;18083;50.560;7.262;2023-03-09T05:15:44;36.23;;;21.13;;
26484;SDS011;18083;50.560;7.262;2023-03-09T05:18:11;42.00;;;22.17;;
26484;SDS011;18083;50.560;7.262;2023-03-09T05:20:38;36.03;;;21.87;;
26484;SDS011;18083;50.560;7.262;2023-03-09T05:23:06;33.43;;;18.90;;
26484;SDS011;18083;50.560;7.262;2023-03-09T05:25:34;38.00;;;21.33;;
26484;SDS011;18083;50.560;7.262;2023-03-09T05:28:01;36.67;;;20.60;;
26484;SDS011;18083;50.560;7.262;2023-03-09T05:30:30;37.17;;;20.23;;
26484;SDS011;18083;50.560;7.262;2023-03-09T05:32:58;37.70;;;19.87;;
26484;SDS011;18083;50.560;7.262;2023-03-09T05:35:26;39.57;;;23.40;;
26484;SDS011;18083;50.560;7.262;2023-03-09T05:37:53;34.00;;;22.03;;
26484;SDS011;18083;50.560;7.262;2023-03-09T05:40:20;40.47;;;23.20;;
26484;SDS011;18083;50.560;7.262;2023-03-09T05:42:49;39.60;;;21.43;;
26484;SDS011;18083;50.560;7.262;2023-03-09T05:45:16;38.37;;;21.60;;
26484;SDS011;18083;50.560;7.262;2023-03-09T05:47:43;40.50;;;22.47;;
26484;SDS011;18083;50.560;7.262;2023-03-09T05:50:11;38.67;;;22.30;;
26484;SDS011;18083;50.560;7.262;2023-03-09T05:52:38;36.33;;;21.27;;
26484;SDS011;18083;50.560;7.262;2023-03-09T05:55:06;38.47;;;22.03;;
26484;SDS011;18083;50.560;7.262;2023-03-09T05:57:33;35.10;;;21.53;;
26484;SDS011;18083;50.560;7.262;2023-03-09T06:00:00;36.73;;;21.83;;
26484;SDS011;18083;50.560;7.262;2023-03-09T06:02:29;38.30;;;20.77;;
26484;SDS011;18083;50.560;7.262;2023-03-09T06:04:56;29.33;;;19.10;;
26484;SDS011;18083;50.560;7.262;2023-03-09T06:07:27;35.60;;;19.57;;
26484;SDS011;18083;50.560;7.262;2023-03-09T06:09:54;29.53;;;17.90;;
26484;SDS011;18083;50.560;7.262;2023-03-09T06:12:22;29.43;;;18.20;;
26484;SDS011;18083;50.560;7.262;2023-03-09T06:14:49;34.63;;;21.37;;
26484;SDS011;18083;50.560;7.262;2023-03-09T06:17:17;30.50;;;19.47;;
26484;SDS011;18083;50.560;7.262;2023-03-09T06:19:45;33.20;;;18.37;;
26484;SDS011;18083;50.560;7.262;2023-03-09T06:22:12;27.93;;;17.67;;
26484;SDS011;18083;50.560;7.262;2023-03-09T06:24:39;32.93;;;18.93;;
26484;SDS011;18083;50.560;7.262;2023-03-09T06:27:08;26.77;;;16.33;;
26484;SDS011;18083;50.560;7.262;2023-03-09T06:29:35;28.43;;;17.40;;
26484;SDS011;18083;50.560;7.262;2023-03-09T06:32:03;26.70;;;16.37;;
26484;SDS011;18083;50.560;7.262;2023-03-09T06:34:30;28.07;;;16.63;;
26484;SDS011;18083;50.560;7.262;2023-03-09T06:36:58;27.30;;;17.60;;
26484;SDS011;18083;50.560;7.262;2023-03-09T06:39:25;31.57;;;18.53;;
26484;SDS011;18083;50.560;7.262;2023-03-09T06:41:52;34.47;;;19.03;;
26484;SDS011;18083;50.560;7.262;2023-03-09T06:44:20;33.47;;;19.50;;
26484;SDS011;18083;50.560;7.262;2023-03-09T06:46:47;30.13;;;18.87;;
26484;SDS011;18083;50.560;7.262;2023-03-09T06:49:14;27.70;;;16.87;;
26484;SDS011;18083;50.560;7.262;2023-03-09T06:51:42;29.73;;;17.40;;
26484;SDS011;18083;50.560;7.262;2023-03-09T06:54:11;25.07;;;15.47;;
26484;SDS011;18083;50.560;7.262;2023-03-09T06:56:40;29.20;;;14.97;;
26484;SDS011;18083;50.560;7.262;2023-03-09T06:59:07;26.80;;;14.97;;
26484;SDS011;18083;50.560;7.262;2023-03-09T07:01:35;28.93;;;16.20;;
26484;SDS011;18083;50.560;7.262;2023-03-09T07:04:02;25.97;;;15.83;;
26484;SDS011;18083;50.560;7.262;2023-03-09T07:06:29;25.03;;;15.77;;
26484;SDS011;18083;50.560;7.262;2023-03-09T07:08:57;27.47;;;16.73;;
26484;SDS011;18083;50.560;7.262;2023-03-09T07:11:24;29.97;;;17.90;;
26484;SDS011;18083;50.560;7.262;2023-03-09T07:13:51;29.70;;;17.67;;
26484;SDS011;18083;50.560;7.262;2023-03-09T07:16:19;38.67;;;18.90;;
26484;SDS011;18083;50.560;7.262;2023-03-09T07:18:46;28.40;;;16.70;;
26484;SDS011;18083;50.560;7.262;2023-03-09T07:21:13;26.03;;;17.13;;
26484;SDS011;18083;50.560;7.262;2023-03-09T07:23:41;28.70;;;17.90;;
26484;SDS011;18083;50.560;7.262;2023-03-09T07:26:08;27.30;;;17.90;;
26484;SDS011;18083;50.560;7.262;2023-03-09T07:28:35;27.40;;;17.60;;
26484;SDS011;18083;50.560;7.262;2023-03-09T07:31:10;28.17;;;18.60;;
26484;SDS011;18083;50.560;7.262;2023-03-09T07:33:39;32.43;;;19.70;;
26484;SDS011;18083;50.560;7.262;2023-03-09T07:36:07;31.60;;;20.83;;
26484;SDS011;18083;50.560;7.262;2023-03-09T07:38:34;30.00;;;17.30;;
26484;SDS011;18083;50.560;7.262;2023-03-09T07:41:01;28.47;;;17.00;;
26484;SDS011;18083;50.560;7.262;2023-03-09T07:43:29;30.67;;;17.97;;
26484;SDS011;18083;50.560;7.262;2023-03-09T07:45:56;31.13;;;19.93;;
26484;SDS011;18083;50.560;7.262;2023-03-09T07:48:23;39.27;;;22.00;;
26484;SDS011;18083;50.560;7.262;2023-03-09T07:50:58;38.87;;;23.40;;
26484;SDS011;18083;50.560;7.262;2023-03-09T07:53:22;48.03;;;27.67;;
26484;SDS011;18083;50.560;7.262;2023-03-09T07:55:54;38.90;;;22.67;;
26484;SDS011;18083;50.560;7.262;2023-03-09T07:58:18;36.50;;;22.23;;
26484;SDS011;18083;50.560;7.262;2023-03-09T08:00:46;31.93;;;19.13;;
26484;SDS011;18083;50.560;7.262;2023-03-09T08:03:13;31.53;;;18.93;;
26484;SDS011;18083;50.560;7.262;2023-03-09T08:05:42;26.97;;;18.70;;
26484;SDS011;18083;50.560;7.262;2023-03-09T08:08:09;27.37;;;17.47;;
26484;SDS011;18083;50.560;7.262;2023-03-09T08:10:38;28.53;;;16.67;;
26484;SDS011;18083;50.560;7.262;2023-03-09T08:13:08;32.17;;;18.77;;
26484;SDS011;18083;50.560;7.262;2023-03-09T08:15:35;33.80;;;18.50;;
26484;SDS011;18083;50.560;7.262;2023-03-09T08:18:02;29.17;;;19.90;;
26484;SDS011;18083;50.560;7.262;2023-03-09T08:20:30;27.13;;;19.20;;
26484;SDS011;18083;50.560;7.262;2023-03-09T08:22:57;30.70;;;21.03;;
26484;SDS011;18083;50.560;7.262;2023-03-09T08:25:25;25.47;;;18.67;;
26484;SDS011;18083;50.560;7.262;2023-03-09T08:27:52;30.60;;;19.83;;
26484;SDS011;18083;50.560;7.262;2023-03-09T08:30:19;27.47;;;17.37;;
26484;SDS011;18083;50.560;7.262;2023-03-09T08:32:48;30.70;;;17.37;;
26484;SDS011;18083;50.560;7.262;2023-03-09T08:35:19;26.23;;;16.57;;
26484;SDS011;18083;50.560;7.262;2023-03-09T08:37:47;27.40;;;17.33;;
26484;SDS011;18083;50.560;7.262;2023-03-09T08:40:15;25.20;;;17.00;;
26484;SDS011;18083;50.560;7.262;2023-03-09T08:42:42;29.97;;;18.73;;
26484;SDS011;18083;50.560;7.262;2023-03-09T08:45:10;24.90;;;14.47;;
26484;SDS011;18083;50.560;7.262;2023-03-09T08:47:38;25.83;;;16.53;;
26484;SDS011;18083;50.560;7.262;2023-03-09T08:50:05;31.23;;;16.53;;
26484;SDS011;18083;50.560;7.262;2023-03-09T08:52:33;17.80;;;13.27;;
26484;SDS011;18083;50.560;7.262;2023-03-09T08:55:02;22.20;;;16.00;;
26484;SDS011;18083;50.560;7.262;2023-03-09T08:57:30;21.37;;;14.87;;
26484;SDS011;18083;50.560;7.262;2023-03-09T08:59:58;24.63;;;15.60;;
26484;SDS011;18083;50.560;7.262;2023-03-09T09:02:25;19.77;;;12.80;;
26484;SDS011;18083;50.560;7.262;2023-03-09T09:04:52;20.07;;;13.30;;
26484;SDS011;18083;50.560;7.262;2023-03-09T09:07:20;21.73;;;14.47;;
26484;SDS011;18083;50.560;7.262;2023-03-09T09:09:47;20.07;;;13.07;;
26484;SDS011;18083;50.560;7.262;2023-03-09T09:12:17;17.40;;;12.07;;
26484;SDS011;18083;50.560;7.262;2023-03-09T09:14:43;22.37;;;12.60;;
26484;SDS011;18083;50.560;7.262;2023-03-09T09:17:11;17.10;;;12.27;;
26484;SDS011;18083;50.560;7.262;2023-03-09T09:19:39;14.87;;;10.97;;
26484;SDS011;18083;50.560;7.262;2023-03-09T09:22:06;16.00;;;9.37;;
26484;SDS011;18083;50.560;7.262;2023-03-09T09:24:35;16.53;;;11.23;;
26484;SDS011;18083;50.560;7.262;2023-03-09T09:27:03;19.10;;;12.27;;
26484;SDS011;18083;50.560;7.262;2023-03-09T09:29:32;18.03;;;11.53;;
26484;SDS011;18083;50.560;7.262;2023-03-09T09:32:00;21.63;;;13.53;;
26484;SDS011;18083;50.560;7.262;2023-03-09T09:34:32;15.00;;;10.37;;
26484;SDS011;18083;50.560;7.262;2023-03-09T09:36:57;13.23;;;10.00;;
26484;SDS011;18083;50.560;7.262;2023-03-09T09:39:27;18.27;;;10.80;;
26484;SDS011;18083;50.560;7.262;2023-03-09T09:41:55;15.30;;;10.17;;
26484;SDS011;18083;50.560;7.262;2023-03-09T09:44:25;16.97;;;10.73;;
26484;SDS011;18083;50.560;7.262;2023-03-09T09:46:53;12.47;;;9.30;;
26484;SDS011;18083;50.560;7.262;2023-03-09T09:49:25;10.33;;;8.13;;
26484;SDS011;18083;50.560;7.262;2023-03-09T09:57:21;13.40;;;9.30;;
26484;SDS011;18083;50.560;7.262;2023-03-09T09:59:57;16.33;;;12.37;;
26484;SDS011;18083;50.560;7.262;2023-03-09T10:05:07;16.60;;;9.87;;
26484;SDS011;18083;50.560;7.262;2023-03-09T10:07:33;12.87;;;9.10;;
26484;SDS011;18083;50.560;7.262;2023-03-09T10:10:04;10.77;;;8.30;;
26484;SDS011;18083;50.560;7.262;2023-03-09T10:12:31;9.67;;;7.27;;
26484;SDS011;18083;50.560;7.262;2023-03-09T10:15:03;8.17;;;6.83;;
26484;SDS011;18083;50.560;7.262;2023-03-09T10:17:40;7.47;;;6.03;;
26484;SDS011;18083;50.560;7.262;2023-03-09T10:20:13;8.03;;;6.17;;
26484;SDS011;18083;50.560;7.262;2023-03-09T10:22:36;6.03;;;5.03;;
26484;SDS011;18083;50.560;7.262;2023-03-09T10:25:09;4.57;;;3.70;;
26484;SDS011;18083;50.560;7.262;2023-03-09T10:27:43;6.43;;;5.10;;
26484;SDS011;18083;50.560;7.262;2023-03-09T10:35:19;4.30;;;3.27;;
26484;SDS011;18083;50.560;7.262;2023-03-09T10:37:48;3.73;;;3.07;;
26484;SDS011;18083;50.560;7.262;2023-03-09T10:40:23;4.47;;;3.50;;
26484;SDS011;18083;50.560;7.262;2023-03-09T10:42:51;4.17;;;3.37;;
26484;SDS011;18083;50.560;7.262;2023-03-09T10:45:22;4.30;;;3.63;;
26484;SDS011;18083;50.560;7.262;2023-03-09T10:47:54;3.03;;;2.73;;
26484;SDS011;18083;50.560;7.262;2023-03-09T10:50:23;3.37;;;3.03;;
26484;SDS011;18083;50.560;7.262;2023-03-09T10:52:52;4.50;;;2.70;;
26484;SDS011;18083;50.560;7.262;2023-03-09T10:57:55;5.93;;;3.03;;
26484;SDS011;18083;50.560;7.262;2023-03-09T11:00:23;5.20;;;3.00;;
26484;SDS011;18083;50.560;7.262;2023-03-09T11:02:53;2.97;;;2.57;;
26484;SDS011;18083;50.560;7.262;2023-03-09T11:05:21;2.80;;;2.50;;
26484;SDS011;18083;50.560;7.262;2023-03-09T11:07:59;3.60;;;2.80;;
26484;SDS011;18083;50.560;7.262;2023-03-09T11:10:31;3.63;;;2.40;;
26484;SDS011;18083;50.560;7.262;2023-03-09T11:13:00;2.93;;;2.63;;
26484;SDS011;18083;50.560;7.262;2023-03-09T11:15:35;2.63;;;2.20;;
26484;SDS011;18083;50.560;7.262;2023-03-09T11:18:08;3.07;;;2.17;;
26484;SDS011;18083;50.560;7.262;2023-03-09T11:20:29;3.23;;;2.63;;
26484;SDS011;18083;50.560;7.262;2023-03-09T11:23:01;4.53;;;2.63;;
26484;SDS011;18083;50.560;7.262;2023-03-09T11:30:48;2.57;;;2.13;;
26484;SDS011;18083;50.560;7.262;2023-03-09T11:33:17;3.73;;;3.20;;
26484;SDS011;18083;50.560;7.262;2023-03-09T11:39:00;2.93;;;2.60;;
26484;SDS011;18083;50.560;7.262;2023-03-09T11:41:31;4.83;;;3.30;;
26484;SDS011;18083;50.560;7.262;2023-03-09T11:44:01;3.30;;;2.70;;
26484;SDS011;18083;50.560;7.262;2023-03-09T11:46:28;2.20;;;2.00;;
26484;SDS011;18083;50.560;7.262;2023-03-09T11:49:01;2.33;;;2.10;;
26484;SDS011;18083;50.560;7.262;2023-03-09T11:51:29;2.03;;;1.87;;
26484;SDS011;18083;50.560;7.262;2023-03-09T11:54:39;2.33;;;1.80;;
26484;SDS011;18083;50.560;7.262;2023-03-09T11:56:35;2.27;;;1.77;;
26484;SDS011;18083;50.560;7.262;2023-03-09T12:01:44;2.97;;;2.30;;
26484;SDS011;18083;50.560;7.262;2023-03-09T12:04:11;3.33;;;2.42;;
26484;SDS011;18083;50.560;7.262;2023-03-09T12:06:54;2.23;;;2.03;;
26484;SDS011;18083;50.560;7.262;2023-03-09T12:09:20;2.55;;;2.00;;
26484;SDS011;18083;50.560;7.262;2023-03-09T12:11:50;2.17;;;1.60;;
26484;SDS011;18083;50.560;7.262;2023-03-09T12:14:25;3.20;;;1.47;;
26484;SDS011;18083;50.560;7.262;2023-03-09T12:16:50;1.97;;;1.77;;
26484;SDS011;18083;50.560;7.262;2023-03-09T12:19:18;3.03;;;1.73;;
26484;SDS011;18083;50.560;7.262;2023-03-09T12:21:47;1.72;;;1.62;;
26484;SDS011;18083;50.560;7.262;2023-03-09T12:27:01;2.40;;;1.90;;
26484;SDS011;18083;50.560;7.262;2023-03-09T12:29:27;2.77;;;1.60;;
26484;SDS011;18083;50.560;7.262;2023-03-09T12:34:41;1.70;;;1.60;;
26484;SDS011;18083;50.560;7.262;2023-03-09T12:40:16;1.90;;;1.80;;
26484;SDS011;18083;50.560;7.262;2023-03-09T12:42:35;4.17;;;2.30;;
26484;SDS011;18083;50.560;7.262;2023-03-09T12:45:21;3.00;;;2.10;;
26484;SDS011;18083;50.560;7.262;2023-03-09T12:50:01;2.53;;;2.20;;
26484;SDS011;18083;50.560;7.262;2023-03-09T12:55:09;3.02;;;2.80;;
26484;SDS011;18083;50.560;7.262;2023-03-09T12:57:27;5.10;;;2.70;;
26484;SDS011;18083;50.560;7.262;2023-03-09T13:00:01;2.47;;;2.27;;
26484;SDS011;18083;50.560;7.262;2023-03-09T13:02:30;3.15;;;2.72;;
26484;SDS011;18083;50.560;7.262;2023-03-09T13:05:12;2.47;;;2.27;;
26484;SDS011;18083;50.560;7.262;2023-03-09T13:07:40;3.10;;;2.80;;
26484;SDS011;18083;50.560;7.262;2023-03-09T13:10:18;3.05;;;2.30;;
26484;SDS011;18083;50.560;7.262;2023-03-09T13:12:36;3.42;;;2.27;;
26484;SDS011;18083;50.560;7.262;2023-03-09T13:15:17;4.15;;;2.77;;
26484;SDS011;18083;50.560;7.262;2023-03-09T13:22:41;4.08;;;2.85;;
26484;SDS011;18083;50.560;7.262;2023-03-09T13:25:31;3.20;;;2.45;;
26484;SDS011;18083;50.560;7.262;2023-03-09T13:28:41;5.87;;;3.20;;
26484;SDS011;18083;50.560;7.262;2023-03-09T13:30:25;5.85;;;2.70;;
26484;SDS011;18083;50.560;7.262;2023-03-09T13:35:30;7.03;;;3.33;;
26484;SDS011;18083;50.560;7.262;2023-03-09T13:37:58;4.83;;;2.72;;
26484;SDS011;18083;50.560;7.262;2023-03-09T13:42:55;4.67;;;2.77;;
26484;SDS011;18083;50.560;7.262;2023-03-09T13:45:32;2.83;;;2.27;;
26484;SDS011;18083;50.560;7.262;2023-03-09T13:48:00;6.08;;;1.90;;
26484;SDS011;18083;50.560;7.262;2023-03-09T13:50:29;3.37;;;2.05;;
26484;SDS011;18083;50.560;7.262;2023-03-09T13:53:04;5.83;;;1.35;;
26484;SDS011;18083;50.560;7.262;2023-03-09T13:55:33;4.70;;;1.65;;
26484;SDS011;18083;50.560;7.262;2023-03-09T13:58:13;3.05;;;1.50;;
26484;SDS011;18083;50.560;7.262;2023-03-09T14:00:52;2.37;;;1.25;;
26484;SDS011;18083;50.560;7.262;2023-03-09T14:03:19;2.00;;;1.27;;
26484;SDS011;18083;50.560;7.262;2023-03-09T14:05:53;6.83;;;1.50;;
26484;SDS011;18083;50.560;7.262;2023-03-09T14:08:21;4.60;;;1.52;;
26484;SDS011;18083;50.560;7.262;2023-03-09T14:10:49;1.60;;;1.22;;
26484;SDS011;18083;50.560;7.262;2023-03-09T14:13:20;2.70;;;1.27;;
26484;SDS011;18083;50.560;7.262;2023-03-09T14:20:58;6.03;;;1.50;;
26484;SDS011;18083;50.560;7.262;2023-03-09T14:23:32;3.00;;;1.02;;
26484;SDS011;18083;50.560;7.262;2023-03-09T14:25:57;3.80;;;1.10;;
26484;SDS011;18083;50.560;7.262;2023-03-09T14:28:32;6.22;;;1.65;;
26484;SDS011;18083;50.560;7.262;2023-03-09T14:36:39;5.95;;;1.37;;
26484;SDS011;18083;50.560;7.262;2023-03-09T14:38:58;6.70;;;1.40;;
26484;SDS011;18083;50.560;7.262;2023-03-09T14:41:27;6.60;;;1.27;;
26484;SDS011;18083;50.560;7.262;2023-03-09T14:43:55;7.97;;;1.30;;
26484;SDS011;18083;50.560;7.262;2023-03-09T14:46:24;7.05;;;1.60;;
26484;SDS011;18083;50.560;7.262;2023-03-09T14:48:53;3.98;;;1.50;;
26484;SDS011;18083;50.560;7.262;2023-03-09T14:51:24;5.03;;;1.87;;
26484;SDS011;18083;50.560;7.262;2023-03-09T14:56:39;9.05;;;2.65;;
26484;SDS011;18083;50.560;7.262;2023-03-09T14:59:12;9.13;;;2.20;;
26484;SDS011;18083;50.560;7.262;2023-03-09T15:01:46;6.12;;;2.10;;
26484;SDS011;18083;50.560;7.262;2023-03-09T15:04:15;9.50;;;2.47;;
26484;SDS011;18083;50.560;7.262;2023-03-09T15:06:43;8.50;;;2.42;;
26484;SDS011;18083;50.560;7.262;2023-03-09T15:09:11;7.47;;;1.90;;
26484;SDS011;18083;50.560;7.262;2023-03-09T15:11:39;8.98;;;2.85;;
26484;SDS011;18083;50.560;7.262;2023-03-09T15:14:07;13.48;;;6.28;;
26484;SDS011;18083;50.560;7.262;2023-03-09T15:16:35;12.93;;;4.37;;
26484;SDS011;18083;50.560;7.262;2023-03-09T15:19:03;10.78;;;3.20;;
26484;SDS011;18083;50.560;7.262;2023-03-09T15:21:30;9.63;;;2.95;;
26484;SDS011;18083;50.560;7.262;2023-03-09T15:23:57;9.70;;;3.80;;
26484;SDS011;18083;50.560;7.262;2023-03-09T15:26:25;8.50;;;3.60;;
26484;SDS011;18083;50.560;7.262;2023-03-09T15:28:52;12.37;;;3.52;;
26484;SDS011;18083;50.560;7.262;2023-03-09T15:31:19;10.60;;;2.95;;
26484;SDS011;18083;50.560;7.262;2023-03-09T15:33:47;8.78;;;2.37;;
26484;SDS011;18083;50.560;7.262;2023-03-09T15:36:14;10.70;;;3.30;;
26484;SDS011;18083;50.560;7.262;2023-03-09T15:38:41;9.05;;;2.80;;
26484;SDS011;18083;50.560;7.262;2023-03-09T15:41:10;7.00;;;2.35;;
26484;SDS011;18083;50.560;7.262;2023-03-09T15:43:37;13.10;;;2.90;;
26484;SDS011;18083;50.560;7.262;2023-03-09T15:46:04;11.22;;;2.37;;